Home > Products > Valid Products > TAF

000
FTUS44 KJAN 020520
TAFMEI
TAF
KMEI 020520Z 0206/0306 19007KT P6SM SCT015 OVC250
     FM021000 19006KT 4SM BR OVC015
     FM021400 19008KT 6SM BR OVC025
     FM021500 19010KT P6SM OVC035
     FM021700 19015G22KT P6SM SCT040 BKN250
     FM030000 19011KT P6SM SCT050 BKN250=



000
FTUS44 KJAN 020520
TAFGLH
TAF
KGLH 020520Z 0206/0306 18011KT P6SM SCT050 OVC250
     FM020800 19010KT P6SM SCT025 OVC050
     FM021000 19010KT 4SM BR OVC025
     FM021500 20022G28KT P6SM BKN040
     FM021800 20024G35KT P6SM SCT050 BKN250
     FM030100 18020KT P6SM SCT250=



000
FTUS44 KJAN 020520
TAFHBG
TAF
KHBG 020520Z 0206/0306 18005KT P6SM SCT015 BKN250
     FM020800 18004KT P6SM OVC015
     FM021000 18003KT 4SM BR OVC007
     FM021400 16009KT 6SM HZ OVC015
     FM021600 18015KT P6SM BKN035
     FM022200 19020G26KT P6SM SCT040 BKN250
     FM030000 17010KT P6SM OVC250=



000
FTUS44 KJAN 020520
TAFGWO
TAF
KGWO 020520Z 0206/0306 18009KT P6SM SCT050 OVC250
     FM020800 18010KT 6SM BR SCT025 OVC050
     FM021000 18006KT 5SM BR OVC025
     FM021500 19016G22KT P6SM OVC025
     FM021600 20018G25KT P6SM BKN040
     FM022000 19017G24KT P6SM SCT050 BKN250
     FM030200 18014KT P6SM SCT250=



000
FTUS44 KJAN 020520
TAFJAN
TAF
KJAN 020520Z 0206/0306 17008KT P6SM SCT015 OVC250
     FM021300 17012KT P6SM OVC015
     FM021500 18015G21KT P6SM OVC025
     FM021700 18017G23KT P6SM BKN040
     FM022000 17017KT P6SM SCT050 BKN250=



000
FTUS44 KJAN 020520
TAFGLH
TAF
KGLH 020520Z 0206/0306 18011KT P6SM SCT050 OVC250
     FM020800 19010KT P6SM SCT025 OVC050
     FM021000 19010KT 4SM BR OVC025
     FM021500 20022G28KT P6SM BKN040
     FM021800 20024G35KT P6SM SCT050 BKN250
     FM030100 18020KT P6SM SCT250=



000
FTUS44 KJAN 020520
TAFMEI
TAF
KMEI 020520Z 0206/0306 19007KT P6SM SCT015 OVC250
     FM021000 19006KT 4SM BR OVC015
     FM021400 19008KT 6SM BR OVC025
     FM021500 19010KT P6SM OVC035
     FM021700 19015G22KT P6SM SCT040 BKN250
     FM030000 19011KT P6SM SCT050 BKN250=



000
FTUS44 KJAN 020520
TAFHBG
TAF
KHBG 020520Z 0206/0306 18005KT P6SM SCT015 BKN250
     FM020800 18004KT P6SM OVC015
     FM021000 18003KT 4SM BR OVC007
     FM021400 16009KT 6SM HZ OVC015
     FM021600 18015KT P6SM BKN035
     FM022200 19020G26KT P6SM SCT040 BKN250
     FM030000 17010KT P6SM OVC250=



000
FTUS44 KJAN 020254 RRA
TAFHBG
TAF
KHBG 020254Z 0203/0224 18003KT P6SM SCT250
     FM020700 00000KT P6SM SCT015
     FM021100 00000KT 3SM BR OVC015
     FM021500 18010KT P6SM SCT025
     FM021800 19012G18KT P6SM VCTS SCT025CB BKN050=



000
FTUS44 KJAN 020254 RRA
TAFJAN
TAF
KJAN 020254Z 0203/0224 16005KT P6SM SCT250
     FM020800 17005KT P6SM SCT015
     FM021500 18012G18KT P6SM BKN015 BKN050
     FM021800 20015G22KT P6SM SCT015 BKN050
     FM022000 20018G28KT P6SM -SHRA VCTS SCT020CB BKN050=



000
FTUS44 KJAN 020254 RRA
TAFGLH
TAF
KGLH 020254Z 0203/0224 16010KT P6SM SCT250
     FM021000 19005KT 5SM BR FEW050 FEW250
     FM021500 20015G22KT P6SM SCT060 OVC250
     FM021700 20018G26KT P6SM BKN035 OVC250
     FM022000 20020G28KT P6SM OVC035=



000
FTUS44 KJAN 020254 RRA
TAFMEI
TAF
KMEI 020254Z 0203/0224 18003KT P6SM SCT250
     FM020800 00000KT P6SM SCT015
     FM021100 00000KT 4SM BR OVC015
     FM021500 18005KT P6SM SCT025
     FM021800 19012G18KT P6SM SCT025 BKN050
     FM022200 19015G22KT P6SM VCTS SCT025CB BKN050=



000
FTUS44 KJAN 020254 RRA
TAFGWO
TAF
KGWO 020254Z 0203/0224 15010KT P6SM SCT250
     FM021100 17005KT 5SM BR FEW050 FEW250
     FM021400 18013G18KT P6SM SCT060 OVC250
     FM021700 18015G22KT P6SM BKN035 OVC250
     FM022000 22018G28KT P6SM VCTS OVC050CB=



000
FTUS44 KJAN 011753
TAFHBG
TAF
KHBG 011753Z 0118/0218 20005KT P6SM SCT040 SCT250
     FM020000 18003KT P6SM SCT100
     FM020500 17004KT P6SM OVC015
     FM020700 19006KT P6SM OVC007
     FM021600 19014G20KT P6SM SCT030 BKN050=



000
FTUS44 KJAN 011753
TAFHBG
TAF
KHBG 011753Z 0118/0218 20005KT P6SM SCT040 SCT250
     FM020000 18003KT P6SM SCT100
     FM020500 17004KT P6SM OVC015
     FM020700 19006KT P6SM OVC007
     FM021600 19014G20KT P6SM SCT030 BKN050=



000
FTUS44 KJAN 011753
TAFJAN
TAF
KJAN 011753Z 0118/0218 16005KT P6SM OVC022
     FM011900 18007KT P6SM BKN035
     FM020000 16006KT P6SM BKN100
     FM020900 17005KT P6SM OVC015
     FM021600 18016G22KT P6SM SCT030 BKN050=



000
FTUS44 KJAN 011753
TAFGLH
TAF
KGLH 011753Z 0118/0218 19008KT 5SM HZ OVC015
     FM011900 20010KT P6SM VCSH SCT030 BKN120
     FM020000 16007KT P6SM BKN100
     FM020800 19010KT 4SM BR OVC015
     FM021700 19019G26KT P6SM BKN035=



000
FTUS44 KJAN 011753
TAFGWO
TAF
KGWO 011753Z 0118/0218 21011KT P6SM OVC016
     FM011900 17010KT P6SM VCSH SCT030 BKN120
     FM020000 16007KT P6SM BKN100
     FM020700 18010KT P6SM OVC015
     FM021700 19017G23KT P6SM BKN035=



000
FTUS44 KJAN 011753
TAFMEI
TAF
KMEI 011753Z 0118/0218 26005KT P6SM BKN027 BKN070
     FM020000 18003KT P6SM BKN150
     FM020500 19007KT P6SM OVC015
     FM020900 19006KT P6SM OVC007
     FM021500 19011G17KT P6SM SCT030 OVC050=



000
FTUS44 KJAN 011753
TAFJAN
TAF
KJAN 011753Z 0118/0218 16005KT P6SM OVC022
     FM011900 18007KT P6SM BKN035
     FM020000 16006KT P6SM BKN100
     FM020900 17005KT P6SM OVC015
     FM021600 18016G22KT P6SM SCT030 BKN050=



000
FTUS44 KJAN 011753
TAFGWO
TAF
KGWO 011753Z 0118/0218 21011KT P6SM OVC016
     FM011900 17010KT P6SM VCSH SCT030 BKN120
     FM020000 16007KT P6SM BKN100
     FM020700 18010KT P6SM OVC015
     FM021700 19017G23KT P6SM BKN035=



000
FTUS44 KJAN 011753
TAFGLH
TAF
KGLH 011753Z 0118/0218 19008KT 5SM HZ OVC015
     FM011900 20010KT P6SM VCSH SCT030 BKN120
     FM020000 16007KT P6SM BKN100
     FM020800 19010KT 4SM BR OVC015
     FM021700 19019G26KT P6SM BKN035=



000
FTUS44 KJAN 011753
TAFMEI
TAF
KMEI 011753Z 0118/0218 26005KT P6SM BKN027 BKN070
     FM020000 18003KT P6SM BKN150
     FM020500 19007KT P6SM OVC015
     FM020900 19006KT P6SM OVC007
     FM021500 19011G17KT P6SM SCT030 OVC050=



000
FTUS44 KJAN 011529 AAB
TAFGLH
TAF AMD
KGLH 011529Z 0115/0212 23011KT 5SM BR OVC007
     FM011630 20006KT P6SM SCT010 SCT250
     FM011900 20010KT P6SM VCSH SCT030 BKN120
     FM020000 16007KT P6SM BKN100=



000
FTUS44 KJAN 011438 AAB
TAFJAN
TAF AMD
KJAN 011438Z 0115/0212 23003KT P6SM OVC007
     FM011630 21008KT P6SM SCT010 SCT250
     FM020000 16006KT P6SM BKN170=



000
FTUS44 KJAN 011437 AAA
TAFGWO
TAF AMD
KGWO 011437Z 0115/0212 20008KT P6SM BKN013
     FM011700 19006KT P6SM SCT020 SCT040 SCT250
     FM011900 17010KT P6SM VCSH SCT030 BKN120
     FM020000 16007KT P6SM BKN100=



000
FTUS44 KJAN 011437 AAA
TAFGWO
TAF AMD
KGWO 011437Z 0115/0212 20008KT P6SM BKN013
     FM011700 19006KT P6SM SCT020 SCT040 SCT250
     FM011900 17010KT P6SM VCSH SCT030 BKN120
     FM020000 16007KT P6SM BKN100=



000
FTUS44 KJAN 011429 AAB
TAFHBG
TAF AMD
KHBG 011429Z 0114/0212 VRB03KT P6SM SCT010
     FM011430 25005KT P6SM SCT015 SCT250
     FM011700 21010KT P6SM SCT040 SCT250
     FM020000 18003KT P6SM SCT100=



000
FTUS44 KJAN 011429 AAB
TAFHBG
TAF AMD
KHBG 011429Z 0114/0212 VRB03KT P6SM SCT010
     FM011430 25005KT P6SM SCT015 SCT250
     FM011700 21010KT P6SM SCT040 SCT250
     FM020000 18003KT P6SM SCT100=



000
FTUS44 KJAN 011233 AAA
TAFHBG
TAF AMD
KHBG 011233Z 0113/0212 28004KT P6SM OVC005
     FM011430 25005KT P6SM SCT015 SCT250
     FM011700 21010KT P6SM SCT040 SCT250
     FM020000 18003KT P6SM SCT100=



000
FTUS44 KJAN 011233 AAA
TAFMEI
TAF AMD
KMEI 011233Z 0113/0212 20005KT P6SM FEW023 OVC050
     FM011500 20006KT P6SM SCT040 SCT250
     FM020000 18003KT P6SM BKN150=



000
FTUS44 KJAN 011233 AAA
TAFHBG
TAF AMD
KHBG 011233Z 0113/0212 28004KT P6SM OVC005
     FM011430 25005KT P6SM SCT015 SCT250
     FM011700 21010KT P6SM SCT040 SCT250
     FM020000 18003KT P6SM SCT100=



000
FTUS44 KJAN 011233 AAA
TAFMEI
TAF AMD
KMEI 011233Z 0113/0212 20005KT P6SM FEW023 OVC050
     FM011500 20006KT P6SM SCT040 SCT250
     FM020000 18003KT P6SM BKN150=



000
FTUS44 KJAN 011232 AAA
TAFGLH
TAF AMD
KGLH 011232Z 0113/0212 16003KT 4SM BR OVC014
     FM011500 20006KT P6SM SCT040 SCT250
     FM011900 20010KT P6SM VCSH SCT030 BKN120
     FM020000 16007KT P6SM BKN100=



000
FTUS44 KJAN 011232 AAA
TAFGLH
TAF AMD
KGLH 011232Z 0113/0212 16003KT 4SM BR OVC014
     FM011500 20006KT P6SM SCT040 SCT250
     FM011900 20010KT P6SM VCSH SCT030 BKN120
     FM020000 16007KT P6SM BKN100=



000
FTUS44 KJAN 011232 AAB
TAFJAN
TAF AMD
KJAN 011232Z 0113/0212 23003KT P6SM OVC007
     FM011500 21008KT P6SM SCT010 SCT250
     FM020000 16006KT P6SM BKN170=



000
FTUS44 KJAN 011232 AAB
TAFJAN
TAF AMD
KJAN 011232Z 0113/0212 23003KT P6SM OVC007
     FM011500 21008KT P6SM SCT010 SCT250
     FM020000 16006KT P6SM BKN170=



000
FTUS44 KJAN 011148 CCA
TAFMEI
TAF COR
KMEI 011148Z 0112/0212 VRB03KT P6SM BKN024
     FM011500 20006KT P6SM SCT040 SCT250
     FM020000 18003KT P6SM BKN150=



000
FTUS44 KJAN 011148 CCA
TAFMEI
TAF COR
KMEI 011148Z 0112/0212 VRB03KT P6SM BKN024
     FM011500 20006KT P6SM SCT040 SCT250
     FM020000 18003KT P6SM BKN150=



000
FTUS44 KJAN 011120
TAFGWO
TAF
KGWO 011120Z 0112/0212 VRB03KT P6SM SCT250
     FM011500 19006KT P6SM SCT040 SCT250
     FM011900 17010KT P6SM VCSH SCT030 BKN120
     FM020000 16007KT P6SM BKN100=



000
FTUS44 KJAN 011120
TAFJAN
TAF
KJAN 011120Z 0112/0212 17003KT P6SM BKN010
     FM011400 21008KT P6SM SCT040 SCT250
     FM020000 16006KT P6SM BKN170=



000
FTUS44 KJAN 011120
TAFHBG
TAF
KHBG 011120Z 0112/0212 24003KT 6SM BR OVC007
     FM011430 25005KT P6SM SCT015 SCT250
     FM011700 21010KT P6SM SCT040 SCT250
     FM020000 18003KT P6SM SCT100=



000
FTUS44 KJAN 011120
TAFHBG
TAF
KHBG 011120Z 0112/0212 24003KT 6SM BR OVC007
     FM011430 25005KT P6SM SCT015 SCT250
     FM011700 21010KT P6SM SCT040 SCT250
     FM020000 18003KT P6SM SCT100=



000
FTUS44 KJAN 011120
TAFMEI
TAF
KMEI 011120Z 0112/0212 VRB03KT P6SM BKN050
     FM011500 20006KT P6SM SCT040 SCT250
     FM020000 18003KT P6SM BKN150=



000
FTUS44 KJAN 011120
TAFGWO
TAF
KGWO 011120Z 0112/0212 VRB03KT P6SM SCT250
     FM011500 19006KT P6SM SCT040 SCT250
     FM011900 17010KT P6SM VCSH SCT030 BKN120
     FM020000 16007KT P6SM BKN100=



000
FTUS44 KJAN 011120
TAFGLH
TAF
KGLH 011120Z 0112/0212 19003KT 6SM BR SCT010 SCT250
     FM011400 20006KT P6SM SCT040 SCT250
     FM011900 20010KT P6SM VCSH SCT030 BKN120
     FM020000 16007KT P6SM BKN100=



000
FTUS44 KJAN 011120
TAFGLH
TAF
KGLH 011120Z 0112/0212 19003KT 6SM BR SCT010 SCT250
     FM011400 20006KT P6SM SCT040 SCT250
     FM011900 20010KT P6SM VCSH SCT030 BKN120
     FM020000 16007KT P6SM BKN100=



000
FTUS44 KJAN 011120
TAFMEI
TAF
KMEI 011120Z 0112/0212 VRB03KT P6SM BKN050
     FM011500 20006KT P6SM SCT040 SCT250
     FM020000 18003KT P6SM BKN150=



000
FTUS44 KJAN 011120
TAFJAN
TAF
KJAN 011120Z 0112/0212 17003KT P6SM BKN010
     FM011400 21008KT P6SM SCT040 SCT250
     FM020000 16006KT P6SM BKN170=



000
FTUS44 KJAN 011039 AAC
TAFHBG
TAF AMD
KHBG 011039Z 0111/0206 24004KT P6SM BKN008
     FM011700 22010KT P6SM SCT040 SCT200
     FM020000 19003KT P6SM SCT100=



000
FTUS44 KJAN 011039 AAC
TAFHBG
TAF AMD
KHBG 011039Z 0111/0206 24004KT P6SM BKN008
     FM011700 22010KT P6SM SCT040 SCT200
     FM020000 19003KT P6SM SCT100=



000
FTUS44 KJAN 011034 AAB
TAFHBG
TAF AMD
KHBG 011034Z 0111/0206 24004KT P6SM SCT008
     FM011700 22010KT P6SM SCT040 SCT200
     FM020000 19003KT P6SM SCT100=



000
FTUS44 KJAN 011034 AAB
TAFHBG
TAF AMD
KHBG 011034Z 0111/0206 24004KT P6SM SCT008
     FM011700 22010KT P6SM SCT040 SCT200
     FM020000 19003KT P6SM SCT100=



000
FTUS44 KJAN 010913 AAA
TAFHBG
TAF AMD
KHBG 010913Z 0109/0206 24004KT P6SM SCT250
     FM011700 22010KT P6SM SCT040 SCT200
     FM020000 19003KT P6SM SCT100=



000
FTUS44 KJAN 010911 AAA
TAFMEI
TAF AMD
KMEI 010911Z 0109/0206 19003KT P6SM FEW250
     FM011500 23005KT P6SM SCT040 SCT200
     FM012100 20006KT P6SM VCSH SCT030 BKN120
     FM020100 17003KT P6SM BKN100=



000
FTUS44 KJAN 010907 AAA
TAFGWO
TAF AMD
KGWO 010907Z 0109/0206 VRB03KT P6SM SCT250
     FM011500 19006KT P6SM SCT040 SCT200
     FM012100 18010KT P6SM VCSH SCT030 BKN120
     FM020000 15007KT P6SM BKN100=



000
FTUS44 KJAN 010905 AAA
TAFGLH
TAF AMD
KGLH 010905Z 0109/0206 20003KT P6SM SCT250
     FM011400 20006KT P6SM SCT040 SCT250
     FM012100 20010KT P6SM VCSH SCT030 BKN120
     FM020000 17007KT P6SM BKN100=



000
FTUS44 KJAN 010905 AAA
TAFGLH
TAF AMD
KGLH 010905Z 0109/0206 20003KT P6SM SCT250
     FM011400 20006KT P6SM SCT040 SCT250
     FM012100 20010KT P6SM VCSH SCT030 BKN120
     FM020000 17007KT P6SM BKN100=



000
FTUS44 KJAN 010531
TAFHBG
TAF
KHBG 010531Z 0106/0206 22006KT P6SM SCT250
     FM010900 00000KT 4SM BR SCT003 BKN015
     FM011500 23010KT P6SM SCT050
     FM020000 18004KT P6SM SCT040 SCT170=



000
FTUS44 KJAN 010525
TAFJAN
TAF
KJAN 010525Z 0106/0206 21005KT P6SM SKC
     FM011100 21003KT P6SM FEW015
     FM011500 20007KT P6SM SCT040 SCT250
     FM020000 16005KT P6SM BKN170=



000
FTUS44 KJAN 010525
TAFGLH
TAF
KGLH 010525Z 0106/0206 24003KT P6SM SKC
     FM010900 20003KT 4SM BR SCT008
     FM011400 20005KT P6SM BKN015
     FM012100 20010KT P6SM VCSH SCT025 BKN100
     FM020000 17007KT P6SM SCT040 BKN100=



000
FTUS44 KJAN 010525
TAFHBG
TAF
KHBG 010525Z 0106/0206 22006KT P6SM SKC
     FM010900 00000KT 4SM BR SCT003 BKN015
     FM011500 23010KT P6SM SCT050
     FM020000 18004KT P6SM SCT040 SCT170=



000
FTUS44 KJAN 010525
TAFMEI
TAF
KMEI 010525Z 0106/0206 22005KT P6SM FEW250
     FM010900 22003KT 5SM BR BKN010
     FM011430 20004KT P6SM SCT015 BKN030
     FM012100 18006KT P6SM VCSH BKN035
     FM020000 18003KT P6SM SCT040 BKN100=



000
FTUS44 KJAN 010525
TAFJAN
TAF
KJAN 010525Z 0106/0206 21005KT P6SM SKC
     FM011100 21003KT P6SM FEW015
     FM011500 20007KT P6SM SCT040 SCT250
     FM020000 16005KT P6SM BKN170=



000
FTUS44 KJAN 010525
TAFHBG
TAF
KHBG 010525Z 0106/0206 22006KT P6SM SKC
     FM010900 00000KT 4SM BR SCT003 BKN015
     FM011500 23010KT P6SM SCT050
     FM020000 18004KT P6SM SCT040 SCT170=



000
FTUS44 KJAN 010525
TAFGLH
TAF
KGLH 010525Z 0106/0206 24003KT P6SM SKC
     FM010900 20003KT 4SM BR SCT008
     FM011400 20005KT P6SM BKN015
     FM012100 20010KT P6SM VCSH SCT025 BKN100
     FM020000 17007KT P6SM SCT040 BKN100=



000
FTUS44 KJAN 010525
TAFGWO
TAF
KGWO 010525Z 0106/0206 23004KT P6SM SKC
     FM010900 20003KT 4SM BR BKN008
     FM011430 19010KT P6SM BKN035
     FM012100 20010KT P6SM VCSH SCT025 BKN100
     FM020000 14007KT P6SM SCT040 BKN100=



000
FTUS44 KJAN 010525
TAFMEI
TAF
KMEI 010525Z 0106/0206 22005KT P6SM FEW250
     FM010900 22003KT 5SM BR BKN010
     FM011430 20004KT P6SM SCT015 BKN030
     FM012100 18006KT P6SM VCSH BKN035
     FM020000 18003KT P6SM SCT040 BKN100=



000
FTUS44 KJAN 010525
TAFGWO
TAF
KGWO 010525Z 0106/0206 23004KT P6SM SKC
     FM010900 20003KT 4SM BR BKN008
     FM011430 19010KT P6SM BKN035
     FM012100 20010KT P6SM VCSH SCT025 BKN100
     FM020000 14007KT P6SM SCT040 BKN100=



000
FTUS44 KJAN 312351
TAFGWO
TAF
KGWO 312351Z 0100/0124 VRB04KT P6SM SCT040 SCT060
     FM010700 VRB03KT 4SM BR SCT008 SCT015
     FM011400 19004KT P6SM SCT025
     FM011900 19007KT P6SM BKN035=



000
FTUS44 KJAN 312351
TAFGWO
TAF
KGWO 312351Z 0100/0124 VRB04KT P6SM SCT040 SCT060
     FM010700 VRB03KT 4SM BR SCT008 SCT015
     FM011400 19004KT P6SM SCT025
     FM011900 19007KT P6SM BKN035=



000
FTUS44 KJAN 312351
TAFHBG
TAF
KHBG 312351Z 0100/0124 26010G15KT P6SM SCT030 SCT060
     FM010900 00000KT 2SM BR SCT003 BKN015
     FM011400 25008KT P6SM SCT025 SCT050=



000
FTUS44 KJAN 312351
TAFMEI
TAF
KMEI 312351Z 0100/0124 21005KT P6SM SCT030 SCT060
     FM010900 VRB03KT 4SM BR BKN006 BKN010
     FM011500 22004KT P6SM BKN015 OVC025
     FM011800 21006KT P6SM SCT035 BKN050=



000
FTUS44 KJAN 312351
TAFJAN
TAF
KJAN 312351Z 0100/0124 21005KT P6SM SCT030 SCT060
     FM010900 VRB03KT 4SM BR BKN006 BKN010
     FM011500 22004KT P6SM BKN015 OVC025
     FM011800 18007KT P6SM SCT035 BKN050=



000
FTUS44 KJAN 312351
TAFGLH
TAF
KGLH 312351Z 0100/0124 VRB04KT P6SM SCT040 SCT060
     FM010700 24003KT 4SM BR SCT008 SCT015
     FM011400 19006KT P6SM SCT025
     FM011900 19009KT P6SM BKN035=



000
FTUS44 KJAN 312351
TAFMEI
TAF
KMEI 312351Z 0100/0124 21005KT P6SM SCT030 SCT060
     FM010900 VRB03KT 4SM BR BKN006 BKN010
     FM011500 22004KT P6SM BKN015 OVC025
     FM011800 21006KT P6SM SCT035 BKN050=



000
FTUS44 KJAN 312351
TAFHBG
TAF
KHBG 312351Z 0100/0124 26010G15KT P6SM SCT030 SCT060
     FM010900 00000KT 2SM BR SCT003 BKN015
     FM011400 25008KT P6SM SCT025 SCT050=



000
FTUS44 KJAN 312351
TAFJAN
TAF
KJAN 312351Z 0100/0124 21005KT P6SM SCT030 SCT060
     FM010900 VRB03KT 4SM BR BKN006 BKN010
     FM011500 22004KT P6SM BKN015 OVC025
     FM011800 18007KT P6SM SCT035 BKN050=



000
FTUS44 KJAN 312351
TAFGLH
TAF
KGLH 312351Z 0100/0124 VRB04KT P6SM SCT040 SCT060
     FM010700 24003KT 4SM BR SCT008 SCT015
     FM011400 19006KT P6SM SCT025
     FM011900 19009KT P6SM BKN035=



000
FTUS44 KJAN 312015 AAA
TAFGLH
TAF AMD
KGLH 312015Z 3120/0118 20014G19KT P6SM VCTS SCT035CB
     FM312100 25015G25KT 3SM TSRA BR BKN010 OVC025CB
     FM312300 24006KT P6SM BKN030 BKN120
     FM010700 24003KT 4SM BR OVC010
     FM011600 19006KT P6SM OVC015=



000
FTUS44 KJAN 312015 AAA
TAFGLH
TAF AMD
KGLH 312015Z 3120/0118 20014G19KT P6SM VCTS SCT035CB
     FM312100 25015G25KT 3SM TSRA BR BKN010 OVC025CB
     FM312300 24006KT P6SM BKN030 BKN120
     FM010700 24003KT 4SM BR OVC010
     FM011600 19006KT P6SM OVC015=



000
FTUS44 KJAN 311720
TAFMEI
TAF
KMEI 311720Z 3118/0118 21007G15KT P6SM SKC
     FM010000 21003KT P6SM OVC100
     FM010900 00000KT 4SM BR BKN008
     FM011500 24003KT P6SM OVC015=



000
FTUS44 KJAN 311720
TAFHBG
TAF
KHBG 311720Z 3118/0118 26007KT P6SM SCT040
     FM010000 20005KT P6SM BKN100
     FM010900 00000KT 2SM BR OVC003
     FM011500 26003KT P6SM SCT010 OVC050=



000
FTUS44 KJAN 311720
TAFHBG
TAF
KHBG 311720Z 3118/0118 26007KT P6SM SCT040
     FM010000 20005KT P6SM BKN100
     FM010900 00000KT 2SM BR OVC003
     FM011500 26003KT P6SM SCT010 OVC050=



000
FTUS44 KJAN 311720
TAFJAN
TAF
KJAN 311720Z 3118/0118 21014KT P6SM SCT023 BKN040 BKN120
     FM010000 19005KT P6SM SCT030 BKN100
     FM010900 00000KT 4SM BR BKN010
     FM011500 22003KT P6SM OVC015=



000
FTUS44 KJAN 311720
TAFMEI
TAF
KMEI 311720Z 3118/0118 21007G15KT P6SM SKC
     FM010000 21003KT P6SM OVC100
     FM010900 00000KT 4SM BR BKN008
     FM011500 24003KT P6SM OVC015=



000
FTUS44 KJAN 311720
TAFGLH
TAF
KGLH 311720Z 3118/0118 23012KT P6SM VCTS FEW050CB OVC070
     FM312000 25015G25KT 3SM TSRA BR BKN010 OVC025CB
     FM312300 24006KT P6SM BKN030 BKN120
     FM010700 24003KT 4SM BR OVC010
     FM011600 19006KT P6SM OVC015=



000
FTUS44 KJAN 311720
TAFGWO
TAF
KGWO 311720Z 3118/0118 22008KT P6SM VCTS FEW024CB BKN050
     FM312100 25013G22KT 3SM TSRA BR BKN010 OVC025CB
     FM312300 24004KT P6SM BKN030 BKN120
     FM010700 00000KT 4SM BR OVC010
     FM011500 19006KT P6SM OVC015=



000
FTUS44 KJAN 311720
TAFGWO
TAF
KGWO 311720Z 3118/0118 22008KT P6SM VCTS FEW024CB BKN050
     FM312100 25013G22KT 3SM TSRA BR BKN010 OVC025CB
     FM312300 24004KT P6SM BKN030 BKN120
     FM010700 00000KT 4SM BR OVC010
     FM011500 19006KT P6SM OVC015=



000
FTUS44 KJAN 311720
TAFGLH
TAF
KGLH 311720Z 3118/0118 23012KT P6SM VCTS FEW050CB OVC070
     FM312000 25015G25KT 3SM TSRA BR BKN010 OVC025CB
     FM312300 24006KT P6SM BKN030 BKN120
     FM010700 24003KT 4SM BR OVC010
     FM011600 19006KT P6SM OVC015=



000
FTUS44 KJAN 311720
TAFJAN
TAF
KJAN 311720Z 3118/0118 21014KT P6SM SCT023 BKN040 BKN120
     FM010000 19005KT P6SM SCT030 BKN100
     FM010900 00000KT 4SM BR BKN010
     FM011500 22003KT P6SM OVC015=



000
FTUS44 KJAN 311123
TAFJAN
TAF
KJAN 311123Z 3112/0112 19005KT P6SM FEW005 BKN250
     FM311500 22010G18KT P6SM SCT040 BKN120
     FM010000 19005KT P6SM SCT030 BKN100
     FM010900 00000KT 4SM BR BKN010=



000
FTUS44 KJAN 311123
TAFGWO
TAF
KGWO 311123Z 3112/0112 21004KT P6SM BKN050
     FM311800 23009KT P6SM VCTS BKN040CB
     FM312100 25013G22KT 3SM TSRA BR BKN010 OVC025CB
     FM312300 24004KT P6SM BKN030 BKN120
     FM010700 00000KT 4SM BR SCT015 BKN025=



000
FTUS44 KJAN 311123
TAFHBG
TAF
KHBG 311123Z 3112/0112 24007KT 6SM BR SCT002
     FM311400 25005KT P6SM SCT050
     FM311800 24010G18KT P6SM BKN040
     FM010000 20005KT P6SM BKN100
     FM010900 00000KT 2SM BR OVC005=



000
FTUS44 KJAN 311123
TAFGLH
TAF
KGLH 311123Z 3112/0112 21006KT P6SM OVC050
     FM311700 23010KT P6SM VCTS BKN040CB
     FM312000 25015G25KT 3SM TSRA BR BKN010 OVC025CB
     FM312300 24006KT P6SM BKN030 BKN120
     FM010700 24003KT 4SM BR SCT015 BKN025=



000
FTUS44 KJAN 311123
TAFMEI
TAF
KMEI 311123Z 3112/0112 18005KT 6SM BR SCT005 SCT250
     FM311400 24005KT P6SM BKN060
     FM311800 24010G18KT P6SM SCT040 BKN120
     FM010000 21003KT P6SM OVC100
     FM010900 00000KT 4SM BR BKN008=



000
FTUS44 KJAN 311035 AAD
TAFMEI
TAF AMD
KMEI 311035Z 3111/0106 18003KT P6SM FEW005
     FM311400 23005KT P6SM FEW250
     FM311800 24010G18KT P6SM SCT040 BKN200
     FM312300 24008KT P6SM VCTS BKN025CB BKN120
     FM010300 22003KT P6SM OVC100=



000
FTUS44 KJAN 311007 AAC
TAFMEI
TAF AMD
KMEI 311007Z 3110/0106 18003KT P6SM FEW005
      TEMPO 3110/3113 3SM BR BKN005
     FM311400 23005KT P6SM FEW250
     FM311800 24010G18KT P6SM SCT040 BKN200
     FM312300 24008KT P6SM VCTS BKN025CB BKN120
     FM010300 22003KT P6SM OVC100=



000
FTUS44 KJAN 310936 AAB
TAFMEI
TAF AMD
KMEI 310936Z 3110/0106 00000KT 1SM BR FEW005
     FM311200 20003KT 4SM BR SKC
     FM311400 23005KT P6SM FEW250
     FM311800 24010G18KT P6SM SCT040 BKN200
     FM312300 24008KT P6SM VCTS BKN025CB BKN120
     FM010300 22003KT P6SM OVC100=



000
FTUS44 KJAN 310847 AAA
TAFMEI
TAF AMD
KMEI 310847Z 3109/0106 20003KT 5SM BR SKC
     FM311100 21003KT 4SM BR SKC
     FM311400 23005KT P6SM SKC
     FM311800 24010G18KT P6SM SCT040 BKN200
     FM312300 24008KT P6SM VCTS BKN025CB BKN120
     FM010300 22003KT P6SM OVC100=



000
FTUS44 KJAN 310844 AAB
TAFJAN
TAF AMD
KJAN 310844Z 3109/0106 20006KT P6SM SCT250
     FM311600 22010G18KT P6SM SCT040 BKN150
     FM010000 19005KT P6SM SCT030 BKN100=



000
FTUS44 KJAN 310844 AAB
TAFJAN
TAF AMD
KJAN 310844Z 3109/0106 20006KT P6SM SCT250
     FM311600 22010G18KT P6SM SCT040 BKN150
     FM010000 19005KT P6SM SCT030 BKN100=



000
FTUS44 KJAN 310832 AAA
TAFHBG
TAF AMD
KHBG 310832Z 3109/0106 24007KT P6SM SKC
     FM311430 25008KT P6SM SCT050
     FM311800 23011G18KT P6SM BKN040
     FM010000 20005KT P6SM SCT250=



000
FTUS44 KJAN 310832 AAA
TAFHBG
TAF AMD
KHBG 310832Z 3109/0106 24007KT P6SM SKC
     FM311430 25008KT P6SM SCT050
     FM311800 23011G18KT P6SM BKN040
     FM010000 20005KT P6SM SCT250=



000
FTUS44 KJAN 310524
TAFGWO
TAF
KGWO 310524Z 3106/0106 VRB03KT P6SM SKC
     FM310800 19003KT P6SM BKN100
     FM311100 21006KT P6SM BKN015
     FM311700 24010KT P6SM VCTS BKN025CB BKN050
     FM312100 25013G20KT 4SM -TSRA BR BKN010 OVC025CB
     FM010100 26004KT P6SM BKN030 BKN120=



000
FTUS44 KJAN 310524
TAFGWO
TAF
KGWO 310524Z 3106/0106 VRB03KT P6SM SKC
     FM310800 19003KT P6SM BKN100
     FM311100 21006KT P6SM BKN015
     FM311700 24010KT P6SM VCTS BKN025CB BKN050
     FM312100 25013G20KT 4SM -TSRA BR BKN010 OVC025CB
     FM010100 26004KT P6SM BKN030 BKN120=



000
FTUS44 KJAN 310524
TAFGLH
TAF
KGLH 310524Z 3106/0106 19003KT P6SM SKC
     FM310800 20005KT P6SM BKN100
     FM311100 21006KT P6SM BKN015
     FM311600 24010KT P6SM VCTS BKN025CB BKN050
     FM312000 25015G25KT 4SM -TSRA BR BKN010 OVC025CB
     FM010000 22006KT P6SM BKN030 BKN120=



000
FTUS44 KJAN 310524
TAFMEI
TAF
KMEI 310524Z 3106/0106 00000KT P6SM SKC
     FM310800 00000KT 4SM BR BKN015 OVC030
     FM311400 23005KT P6SM BKN025
     FM311800 24010G18KT P6SM BKN040
     FM312300 24008KT P6SM VCTS SCT025CB BKN120
     FM010300 22003KT P6SM OVC100=



000
FTUS44 KJAN 310524
TAFMEI
TAF
KMEI 310524Z 3106/0106 00000KT P6SM SKC
     FM310800 00000KT 4SM BR BKN015 OVC030
     FM311400 23005KT P6SM BKN025
     FM311800 24010G18KT P6SM BKN040
     FM312300 24008KT P6SM VCTS SCT025CB BKN120
     FM010300 22003KT P6SM OVC100=



000
FTUS44 KJAN 310524
TAFHBG
TAF
KHBG 310524Z 3106/0106 22004KT P6SM SKC
     FM310800 18003KT 4SM BR BKN008
     FM311000 00000KT 1/2SM FG VV002
     FM311400 22003KT 5SM BR BKN015
     FM311530 25008KT P6SM SCT025 BKN040
     FM311800 23011G18KT P6SM BKN040
     FM010000 20005KT P6SM SCT250=



000
FTUS44 KJAN 310524
TAFGLH
TAF
KGLH 310524Z 3106/0106 19003KT P6SM SKC
     FM310800 20005KT P6SM BKN100
     FM311100 21006KT P6SM BKN015
     FM311600 24010KT P6SM VCTS BKN025CB BKN050
     FM312000 25015G25KT 4SM -TSRA BR BKN010 OVC025CB
     FM010000 22006KT P6SM BKN030 BKN120=



000
FTUS44 KJAN 310524
TAFJAN
TAF
KJAN 310524Z 3106/0106 14004KT P6SM FEW070
     FM310800 18004KT 5SM BR BKN015 OVC025
     FM311400 21006KT P6SM SCT025 BKN050
     FM311900 22010G18KT P6SM SCT040 BKN100
     FM010000 20005KT P6SM BKN200=



000
FTUS44 KJAN 310524
TAFHBG
TAF
KHBG 310524Z 3106/0106 22004KT P6SM SKC
     FM310800 18003KT 4SM BR BKN008
     FM311000 00000KT 1/2SM FG VV002
     FM311400 22003KT 5SM BR BKN015
     FM311530 25008KT P6SM SCT025 BKN040
     FM311800 23011G18KT P6SM BKN040
     FM010000 20005KT P6SM SCT250=



000
FTUS44 KJAN 310524
TAFJAN
TAF
KJAN 310524Z 3106/0106 14004KT P6SM FEW070
     FM310800 18004KT 5SM BR BKN015 OVC025
     FM311400 21006KT P6SM SCT025 BKN050
     FM311900 22010G18KT P6SM SCT040 BKN100
     FM010000 20005KT P6SM BKN200=



000
FTUS44 KJAN 302340
TAFGLH
TAF
KGLH 302340Z 3100/3124 VRB04KT P6SM SCT040 BKN080
     FM311100 21005KT 6SM BR BKN019 OVC035
     FM311600 24010KT P6SM VCTS BKN025CB BKN050=



000
FTUS44 KJAN 302340
TAFGWO
TAF
KGWO 302340Z 3100/3124 VRB04KT P6SM SCT040 BKN080
     FM311100 21005KT 6SM BR BKN019 OVC035
     FM311630 24010KT P6SM VCTS BKN025CB BKN050=



000
FTUS44 KJAN 302340
TAFJAN
TAF
KJAN 302340Z 3100/3124 VRB03KT P6SM SCT030 BKN060
     FM310800 17004KT 6SM BR BKN019 OVC030
     FM311500 21007KT P6SM BKN025 BKN050
     FM311800 22010G18KT P6SM SCT050=



000
FTUS44 KJAN 302340
TAFHBG
TAF
KHBG 302340Z 3100/3124 18004KT P6SM SCT030 SCT060
     FM310800 18003KT 1SM BR OVC008
     FM311100 19003KT 1/2SM FG VV002
     FM311400 20005KT 5SM BR BKN015
     FM311530 24009KT P6SM SCT025 BKN050=



000
FTUS44 KJAN 302340
TAFMEI
TAF
KMEI 302340Z 3100/3124 VRB03KT P6SM SCT030 SCT060
     FM310930 18004KT 6SM BR BKN019 OVC030
     FM311500 23008KT P6SM BKN025 BKN050
     FM311800 23010G18KT P6SM SCT050=



000
FTUS44 KJAN 302340
TAFGWO
TAF
KGWO 302340Z 3100/3124 VRB04KT P6SM SCT040 BKN080
     FM311100 21005KT 6SM BR BKN019 OVC035
     FM311630 24010KT P6SM VCTS BKN025CB BKN050=



000
FTUS44 KJAN 302340
TAFJAN
TAF
KJAN 302340Z 3100/3124 VRB03KT P6SM SCT030 BKN060
     FM310800 17004KT 6SM BR BKN019 OVC030
     FM311500 21007KT P6SM BKN025 BKN050
     FM311800 22010G18KT P6SM SCT050=



000
FTUS44 KJAN 302340
TAFGLH
TAF
KGLH 302340Z 3100/3124 VRB04KT P6SM SCT040 BKN080
     FM311100 21005KT 6SM BR BKN019 OVC035
     FM311600 24010KT P6SM VCTS BKN025CB BKN050=



000
FTUS44 KJAN 302340
TAFHBG
TAF
KHBG 302340Z 3100/3124 18004KT P6SM SCT030 SCT060
     FM310800 18003KT 1SM BR OVC008
     FM311100 19003KT 1/2SM FG VV002
     FM311400 20005KT 5SM BR BKN015
     FM311530 24009KT P6SM SCT025 BKN050=



000
FTUS44 KJAN 302340
TAFMEI
TAF
KMEI 302340Z 3100/3124 VRB03KT P6SM SCT030 SCT060
     FM310930 18004KT 6SM BR BKN019 OVC030
     FM311500 23008KT P6SM BKN025 BKN050
     FM311800 23010G18KT P6SM SCT050=



000
FTUS44 KJAN 301742
TAFGLH
TAF
KGLH 301742Z 3018/3118 07008KT P6SM FEW050
     FM310000 VRB04KT P6SM SCT050 BKN150
     FM311100 21005KT 6SM BR BKN019 OVC050
     FM311600 23006KT P6SM VCTS BKN025CB BKN050=



000
FTUS44 KJAN 301742
TAFGWO
TAF
KGWO 301742Z 3018/3118 07006KT P6SM FEW050
     FM310000 VRB03KT P6SM SCT050 BKN150
     FM311100 20004KT 6SM BR BKN019 OVC050
     FM311630 22005KT P6SM VCTS BKN025CB BKN050=



000
FTUS44 KJAN 301742
TAFMEI
TAF
KMEI 301742Z 3018/3118 29006KT P6SM VCSH SCT020 BKN030 BKN050
     FM302300 VRB03KT P6SM SCT030 SCT050
     FM310930 18004KT 6SM BR BKN019 OVC030
     FM311500 23008KT P6SM BKN025 BKN050=



000
FTUS44 KJAN 301742
TAFHBG
TAF
KHBG 301742Z 3018/3118 28009KT P6SM VCSH SCT040 BKN060
     FM310000 18004KT P6SM SCT030 BKN050
     FM310800 18003KT 1SM BR OVC008
     FM311100 19003KT 1/2SM FG VV002
     FM311400 20005KT 5SM BR BKN015
     FM311530 24009KT P6SM SCT025 BKN050=



000
FTUS44 KJAN 301742
TAFGWO
TAF
KGWO 301742Z 3018/3118 07006KT P6SM FEW050
     FM310000 VRB03KT P6SM SCT050 BKN150
     FM311100 20004KT 6SM BR BKN019 OVC050
     FM311630 22005KT P6SM VCTS BKN025CB BKN050=



000
FTUS44 KJAN 301742
TAFMEI
TAF
KMEI 301742Z 3018/3118 29006KT P6SM VCSH SCT020 BKN030 BKN050
     FM302300 VRB03KT P6SM SCT030 SCT050
     FM310930 18004KT 6SM BR BKN019 OVC030
     FM311500 23008KT P6SM BKN025 BKN050=



000
FTUS44 KJAN 301742
TAFGLH
TAF
KGLH 301742Z 3018/3118 07008KT P6SM FEW050
     FM310000 VRB04KT P6SM SCT050 BKN150
     FM311100 21005KT 6SM BR BKN019 OVC050
     FM311600 23006KT P6SM VCTS BKN025CB BKN050=



000
FTUS44 KJAN 301742
TAFJAN
TAF
KJAN 301742Z 3018/3118 28006KT P6SM VCSH SCT020 BKN030 BKN050
     FM302300 VRB03KT P6SM SCT030 SCT050
     FM310800 17004KT 6SM BR BKN019 OVC030
     FM311500 21007KT P6SM BKN025 BKN050=



000
FTUS44 KJAN 301742
TAFHBG
TAF
KHBG 301742Z 3018/3118 28009KT P6SM VCSH SCT040 BKN060
     FM310000 18004KT P6SM SCT030 BKN050
     FM310800 18003KT 1SM BR OVC008
     FM311100 19003KT 1/2SM FG VV002
     FM311400 20005KT 5SM BR BKN015
     FM311530 24009KT P6SM SCT025 BKN050=



000
FTUS44 KJAN 301742
TAFJAN
TAF
KJAN 301742Z 3018/3118 28006KT P6SM VCSH SCT020 BKN030 BKN050
     FM302300 VRB03KT P6SM SCT030 SCT050
     FM310800 17004KT 6SM BR BKN019 OVC030
     FM311500 21007KT P6SM BKN025 BKN050=



000
FTUS44 KJAN 301515 AAA
TAFMEI
TAF AMD
KMEI 301515Z 3015/3112 32005KT P6SM VCSH OVC030
     FM301630 35006KT P6SM SCT030 BKN060
     FM302200 01005KT P6SM SCT250
     FM310600 16003KT P6SM BKN100=



000
FTUS44 KJAN 301417 AAA
TAFHBG
TAF AMD
KHBG 301417Z 3014/3112 28007KT P6SM FEW020 SCT050
     FM301700 29010KT P6SM VCSH BKN040
     FM310000 VRB03KT P6SM SCT040 BKN100
     FM310800 00000KT 1SM BR OVC008=



000
FTUS44 KJAN 301415 AAA
TAFGWO
TAF AMD
KGWO 301415Z 3014/3112 05009KT P6SM FEW050
     FM301800 03006KT P6SM FEW250
     FM310100 00000KT P6SM SKC
     FM310400 12003KT P6SM SCT120=



000
FTUS44 KJAN 301121
TAFJAN
TAF
KJAN 301121Z 3012/3112 23009KT P6SM SCT015 BKN025
     FM301400 26011KT P6SM -RA SCT015 BKN025
     FM301600 30008KT P6SM BKN050 BKN080
     FM302200 01005KT P6SM SCT250
     FM310600 14003KT P6SM BKN100=



000
FTUS44 KJAN 301121
TAFGWO
TAF
KGWO 301121Z 3012/3112 24009KT P6SM BKN045 OVC080
     FM301400 33008KT P6SM BKN070
     FM301600 03006KT P6SM FEW250
     FM310100 00000KT P6SM SKC
     FM310400 12003KT P6SM SCT120=



000
FTUS44 KJAN 301121
TAFGLH
TAF
KGLH 301121Z 3012/3112 29010KT P6SM SCT040
     FM301300 01008KT P6SM BKN070
     FM301500 03006KT P6SM FEW250
     FM310100 10004KT P6SM SCT120=



000
FTUS44 KJAN 301121
TAFHBG
TAF
KHBG 301121Z 3012/3112 16003KT 1/4SM FG VV002
     FM301300 24005KT 4SM BR BKN008
     FM301430 27010KT P6SM SCT020 BKN050
     FM301800 29010KT P6SM VCSH BKN040
     FM310000 VRB03KT P6SM SCT040 BKN100
     FM310800 00000KT 1SM BR OVC008=



000
FTUS44 KJAN 301121
TAFMEI
TAF
KMEI 301121Z 3012/3112 22012KT P6SM -RA SCT050 BKN200
     FM301300 26010KT 4SM -TSRA BR BKN025 OVC035CB
     FM301630 30008KT P6SM BKN050 BKN080
     FM302200 01005KT P6SM SCT250
     FM310600 16003KT P6SM BKN100=



000
FTUS44 KJAN 301121
TAFGLH
TAF
KGLH 301121Z 3012/3112 29010KT P6SM SCT040
     FM301300 01008KT P6SM BKN070
     FM301500 03006KT P6SM FEW250
     FM310100 10004KT P6SM SCT120=



000
FTUS44 KJAN 301121
TAFMEI
TAF
KMEI 301121Z 3012/3112 22012KT P6SM -RA SCT050 BKN200
     FM301300 26010KT 4SM -TSRA BR BKN025 OVC035CB
     FM301630 30008KT P6SM BKN050 BKN080
     FM302200 01005KT P6SM SCT250
     FM310600 16003KT P6SM BKN100=



000
FTUS44 KJAN 301121
TAFJAN
TAF
KJAN 301121Z 3012/3112 23009KT P6SM SCT015 BKN025
     FM301400 26011KT P6SM -RA SCT015 BKN025
     FM301600 30008KT P6SM BKN050 BKN080
     FM302200 01005KT P6SM SCT250
     FM310600 14003KT P6SM BKN100=



000
FTUS44 KJAN 301121
TAFHBG
TAF
KHBG 301121Z 3012/3112 16003KT 1/4SM FG VV002
     FM301300 24005KT 4SM BR BKN008
     FM301430 27010KT P6SM SCT020 BKN050
     FM301800 29010KT P6SM VCSH BKN040
     FM310000 VRB03KT P6SM SCT040 BKN100
     FM310800 00000KT 1SM BR OVC008=



000
FTUS44 KJAN 301121
TAFGWO
TAF
KGWO 301121Z 3012/3112 24009KT P6SM BKN045 OVC080
     FM301400 33008KT P6SM BKN070
     FM301600 03006KT P6SM FEW250
     FM310100 00000KT P6SM SKC
     FM310400 12003KT P6SM SCT120=



000
FTUS44 KJAN 301011 AAE
TAFHBG
TAF AMD
KHBG 301011Z 3010/3106 16003KT 3SM BR BKN002
      TEMPO 3010/3013 1/4SM FG VV002
     FM301400 25006KT P6SM BKN015
     FM301700 27010KT P6SM VCSH BKN050
     FM310000 VRB03KT P6SM BKN100=



000
FTUS44 KJAN 301011 AAE
TAFHBG
TAF AMD
KHBG 301011Z 3010/3106 16003KT 3SM BR BKN002
      TEMPO 3010/3013 1/4SM FG VV002
     FM301400 25006KT P6SM BKN015
     FM301700 27010KT P6SM VCSH BKN050
     FM310000 VRB03KT P6SM BKN100=



    US Dept of Commerce
    National Oceanic and Atmospheric Administration
    National Weather Service
    1325 East West Highway
    Silver Spring, MD 20910
    Page Author: NWS Internet Services Team
Disclaimer
Information Quality
Credits
Glossary
Privacy Policy
Freedom of Information Act (FOIA)
About Us
Career Opportunities